Time;durP1;ratioP1;P1;durP2;ratioP2;P2;SDS_P1;SDS_P2;PMS_P1;PMS_P2;Temp;Humidity;BMP_temperature;BMP_pressure;BME280_temperature;BME280_humidity;BME280_pressure;Samples;Min_cycle;Max_cycle;Signal;HPM_P1;HPM_P2
2023/12/05 00:01:35;;;;;;;15.13;11.05;;;24.50;66.10;;;;;;6223334;28;89216;-62
2023/12/05 00:04:40;;;;;;;13.65;10.90;;;24.50;66.10;;;;;;6227782;28;90118;-62
2023/12/05 00:07:44;;;;;;;15.50;11.38;;;24.50;66.10;;;;;;6224216;28;89124;-61
2023/12/05 00:10:46;;;;;;;15.25;10.90;;;24.50;66.10;;;;;;6218412;28;88981;-62
2023/12/05 00:13:48;;;;;;;13.10;10.45;;;24.50;66.10;;;;;;6223472;28;89086;-62
2023/12/05 00:16:50;;;;;;;15.77;11.07;;;24.50;66.10;;;;;;6226217;28;88297;-62
2023/12/05 00:19:53;;;;;;;15.13;11.13;;;24.50;66.20;;;;;;6231237;28;89292;-62
2023/12/05 00:22:55;;;;;;;15.18;10.68;;;24.50;66.20;;;;;;6228365;28;89143;-61
2023/12/05 00:25:57;;;;;;;16.75;10.85;;;24.50;66.40;;;;;;6214650;28;89969;-62
2023/12/05 00:28:59;;;;;;;17.95;10.95;;;24.50;66.40;;;;;;6224732;28;88276;-62
2023/12/05 00:32:01;;;;;;;23.38;12.40;;;24.50;66.50;;;;;;6210761;28;89318;-63
2023/12/05 00:35:04;;;;;;;18.88;11.55;;;24.50;66.60;;;;;;6219709;28;89426;-62
2023/12/05 00:38:07;;;;;;;17.63;11.50;;;24.50;66.50;;;;;;6225655;28;89466;-62
2023/12/05 00:41:09;;;;;;;18.45;11.23;;;24.50;66.60;;;;;;6224099;28;88200;-61
2023/12/05 00:44:11;;;;;;;19.88;11.05;;;24.50;66.70;;;;;;6219056;28;87965;-62
2023/12/05 00:47:13;;;;;;;15.98;10.77;;;24.50;66.70;;;;;;6215906;28;88349;-62
2023/12/05 00:50:17;;;;;;;18.50;11.25;;;24.60;66.90;;;;;;6216250;28;87985;-61
2023/12/05 00:53:19;;;;;;;17.60;11.23;;;24.60;66.70;;;;;;6214342;28;89175;-62
2023/12/05 00:56:20;;;;;;;21.58;11.57;;;24.60;66.70;;;;;;6209683;28;89716;-62
2023/12/05 00:59:23;;;;;;;17.42;10.73;;;24.50;66.60;;;;;;6215726;28;88987;-62
2023/12/05 01:02:24;;;;;;;15.65;10.88;;;24.50;66.60;;;;;;6220245;28;89040;-62
2023/12/05 01:05:28;;;;;;;16.02;10.80;;;24.60;66.60;;;;;;6223722;28;90503;-62
2023/12/05 01:08:30;;;;;;;14.73;10.57;;;24.50;66.40;;;;;;6225958;28;89114;-62
2023/12/05 01:11:32;;;;;;;15.93;10.63;;;24.50;66.40;;;;;;6215323;28;89186;-62
2023/12/05 01:14:34;;;;;;;15.07;10.50;;;24.60;66.50;;;;;;6225000;28;88966;-62
2023/12/05 01:17:35;;;;;;;16.45;10.70;;;24.60;66.40;;;;;;6222442;28;88308;-62
2023/12/05 01:20:39;;;;;;;13.60;10.10;;;24.50;66.30;;;;;;6229279;28;89054;-62
2023/12/05 01:23:41;;;;;;;16.42;10.38;;;24.60;66.40;;;;;;6220030;28;89032;-61
2023/12/05 01:26:43;;;;;;;15.35;10.25;;;24.50;66.30;;;;;;6217121;28;90244;-62
2023/12/05 01:29:45;;;;;;;13.25;9.82;;;24.60;66.30;;;;;;6218774;28;89236;-62
2023/12/05 01:32:47;;;;;;;13.23;9.90;;;24.50;66.20;;;;;;6225154;28;89118;-62
2023/12/05 01:35:50;;;;;;;12.85;9.55;;;24.50;66.20;;;;;;6212552;28;89032;-62
2023/12/05 01:38:52;;;;;;;12.95;9.32;;;24.60;66.20;;;;;;6204904;28;89084;-61
2023/12/05 01:41:54;;;;;;;11.60;8.98;;;24.50;66.20;;;;;;6218705;28;89276;-62
2023/12/05 01:44:57;;;;;;;11.20;8.60;;;24.50;66.40;;;;;;6217213;28;89158;-62
2023/12/05 01:47:59;;;;;;;12.40;9.02;;;24.50;66.40;;;;;;6223973;28;88535;-62
2023/12/05 01:51:06;;;;;;;11.20;8.68;;;24.50;66.40;;;;;;6219495;28;89102;-62
2023/12/05 01:54:11;;;;;;;13.43;9.52;;;24.50;66.30;;;;;;6221959;28;87965;-62
2023/12/05 01:57:13;;;;;;;13.40;9.30;;;24.50;66.20;;;;;;6218520;28;89976;-62
2023/12/05 02:00:16;;;;;;;11.15;9.02;;;24.50;66.20;;;;;;6224315;28;89040;-62
2023/12/05 02:03:19;;;;;;;12.57;9.18;;;24.50;66.20;;;;;;6220833;28;89071;-62
2023/12/05 02:06:22;;;;;;;13.02;9.57;;;24.50;66.20;;;;;;6234335;28;89076;-62
2023/12/05 02:09:24;;;;;;;11.13;8.85;;;24.50;66.20;;;;;;6214192;28;89327;-61
2023/12/05 02:12:26;;;;;;;12.15;9.55;;;24.50;66.20;;;;;;6225736;28;89292;-61
2023/12/05 02:15:28;;;;;;;11.32;9.68;;;24.50;66.10;;;;;;6215056;28;89364;-62
2023/12/05 02:18:34;;;;;;;11.38;9.32;;;24.50;66.10;;;;;;6221682;28;88290;-61
2023/12/05 02:21:41;;;;;;;14.40;10.50;;;24.50;66.10;;;;;;6218485;28;89051;-62
2023/12/05 02:24:53;;;;;;;16.17;10.73;;;24.50;66.00;;;;;;6225904;28;89313;-61
2023/12/05 02:27:59;;;;;;;14.35;10.18;;;24.50;66.10;;;;;;6224729;28;90033;-61
2023/12/05 02:31:01;;;;;;;11.90;10.02;;;24.50;66.10;;;;;;6219423;28;89083;-62
2023/12/05 02:34:04;;;;;;;11.05;9.70;;;24.50;66.00;;;;;;6228101;28;89028;-62
2023/12/05 02:37:19;;;;;;;12.32;10.35;;;24.50;66.00;;;;;;6217662;28;89033;-61
2023/12/05 02:40:28;;;;;;;12.02;10.07;;;24.50;66.00;;;;;;6225566;28;89161;-61
2023/12/05 02:43:40;;;;;;;12.20;10.38;;;24.50;65.90;;;;;;6219354;28;89257;-61
2023/12/05 02:46:43;;;;;;;14.05;10.85;;;24.50;66.10;;;;;;6230369;28;89184;-61
2023/12/05 02:49:45;;;;;;;11.52;10.32;;;24.50;66.00;;;;;;6227069;28;88830;-62
2023/12/05 02:52:47;;;;;;;13.30;10.95;;;24.50;66.00;;;;;;6217204;28;89152;-61
2023/12/05 02:55:49;;;;;;;12.23;10.88;;;24.50;66.10;;;;;;6217214;28;89193;-61
2023/12/05 02:58:53;;;;;;;12.73;11.35;;;24.50;66.10;;;;;;6211631;28;89999;-61
2023/12/05 03:01:55;;;;;;;15.93;11.15;;;24.50;66.00;;;;;;6210013;28;88813;-61
2023/12/05 03:04:57;;;;;;;13.48;11.25;;;24.50;66.10;;;;;;6231236;28;89018;-61
2023/12/05 03:07:59;;;;;;;12.82;11.18;;;24.50;66.10;;;;;;6216166;28;89114;-62
2023/12/05 03:11:01;;;;;;;14.68;11.43;;;24.50;66.10;;;;;;6215406;28;89497;-61
2023/12/05 03:14:05;;;;;;;12.38;10.93;;;24.50;66.20;;;;;;6228549;28;89180;-61
2023/12/05 03:17:07;;;;;;;12.55;11.18;;;24.50;66.20;;;;;;6217474;28;89119;-62
2023/12/05 03:20:10;;;;;;;12.88;11.25;;;24.50;66.20;;;;;;6215230;28;88305;-61
2023/12/05 03:23:12;;;;;;;13.43;11.63;;;24.50;66.20;;;;;;6218565;28;89096;-62
2023/12/05 03:26:23;;;;;;;14.95;11.77;;;24.50;66.20;;;;;;6224200;28;89112;-61
2023/12/05 03:29:27;;;;;;;15.52;12.23;;;24.50;67.10;;;;;;6215629;28;90463;-61
2023/12/05 03:32:29;;;;;;;13.43;11.60;;;24.50;66.20;;;;;;6216591;28;89444;-62
2023/12/05 03:35:31;;;;;;;14.93;11.95;;;24.50;66.20;;;;;;6223179;28;88088;-61
2023/12/05 03:38:33;;;;;;;12.73;11.35;;;24.50;66.20;;;;;;6210573;28;89060;-62
2023/12/05 03:41:35;;;;;;;14.00;11.27;;;24.50;66.30;;;;;;6222127;28;89055;-61
2023/12/05 03:44:39;;;;;;;12.32;11.02;;;24.50;66.30;;;;;;6219273;28;89124;-61
2023/12/05 03:47:41;;;;;;;12.05;10.85;;;24.50;66.30;;;;;;6223139;28;89231;-61
2023/12/05 03:50:43;;;;;;;12.27;10.95;;;24.50;66.40;;;;;;6228303;28;88381;-62
2023/12/05 03:53:45;;;;;;;12.52;10.90;;;24.50;66.40;;;;;;6235225;28;89452;-61
2023/12/05 03:56:47;;;;;;;12.35;11.05;;;24.50;66.40;;;;;;6237889;28;89190;-61
2023/12/05 03:59:50;;;;;;;12.38;11.07;;;24.50;66.40;;;;;;6213510;28;90124;-61
2023/12/05 04:02:52;;;;;;;13.02;10.77;;;24.50;66.40;;;;;;6214408;28;87967;-61
2023/12/05 04:05:54;;;;;;;13.52;11.05;;;24.50;66.50;;;;;;6242632;28;89245;-62
2023/12/05 04:08:56;;;;;;;12.25;10.73;;;24.50;66.80;;;;;;6219519;28;89151;-62
2023/12/05 04:11:58;;;;;;;11.85;10.32;;;24.50;67.90;;;;;;6216109;28;89100;-62
2023/12/05 04:15:02;;;;;;;11.60;10.40;;;24.50;67.40;;;;;;6224416;28;89159;-62
2023/12/05 04:18:04;;;;;;;11.07;9.90;;;24.50;67.10;;;;;;6226815;28;89055;-62
2023/12/05 04:21:06;;;;;;;14.25;11.65;;;24.50;67.10;;;;;;6224414;28;88443;-62
2023/12/05 04:24:09;;;;;;;11.70;10.50;;;24.50;67.00;;;;;;6225008;28;89001;-62
2023/12/05 04:27:10;;;;;;;13.77;10.70;;;24.60;67.00;;;;;;6214365;28;89180;-62
2023/12/05 04:30:14;;;;;;;11.27;10.07;;;24.60;66.90;;;;;;6225807;28;90858;-61
2023/12/05 04:33:16;;;;;;;12.38;10.27;;;24.60;66.90;;;;;;6212601;28;89183;-61
2023/12/05 04:36:18;;;;;;;13.18;10.88;;;24.60;66.90;;;;;;6218593;28;88765;-61
2023/12/05 04:39:20;;;;;;;14.35;10.43;;;24.60;66.80;;;;;;6218107;28;89102;-61
2023/12/05 04:42:22;;;;;;;12.77;10.43;;;24.60;66.80;;;;;;6212597;28;89007;-61
2023/12/05 04:45:26;;;;;;;11.60;10.40;;;24.60;66.80;;;;;;6219839;28;89087;-61
2023/12/05 04:48:31;;;;;;;11.32;10.13;;;24.60;66.70;;;;;;6221515;28;89009;-62
2023/12/05 04:51:35;;;;;;;11.10;9.68;;;24.60;66.70;;;;;;6224697;28;87215;-61
2023/12/05 04:54:37;;;;;;;10.93;9.82;;;24.60;66.80;;;;;;6230115;28;87853;-61
2023/12/05 04:57:38;;;;;;;11.05;9.82;;;24.70;66.70;;;;;;6219088;28;89109;-61
2023/12/05 05:00:42;;;;;;;10.70;9.57;;;24.70;68.00;;;;;;6230180;28;90136;-62
2023/12/05 05:03:44;;;;;;;12.93;10.27;;;24.70;68.00;;;;;;6228330;28;89057;-62
2023/12/05 05:06:46;;;;;;;10.48;9.48;;;24.70;66.70;;;;;;6221665;28;89075;-62
2023/12/05 05:09:49;;;;;;;10.65;9.55;;;24.70;66.40;;;;;;6208908;28;89127;-62
2023/12/05 05:12:51;;;;;;;13.38;10.10;;;24.70;66.20;;;;;;6218195;28;89491;-62
2023/12/05 05:15:54;;;;;;;10.60;9.43;;;24.70;66.00;;;;;;6226327;28;89096;-62
2023/12/05 05:18:56;;;;;;;10.60;9.55;;;24.70;65.90;;;;;;6221061;28;89255;-62
2023/12/05 05:21:58;;;;;;;9.65;8.70;;;24.70;65.90;;;;;;6222840;28;88361;-63
2023/12/05 05:25:01;;;;;;;10.30;9.20;;;24.70;65.90;;;;;;6223982;28;89425;-62
2023/12/05 05:28:03;;;;;;;10.65;9.55;;;24.70;65.70;;;;;;6225984;28;89514;-63
2023/12/05 05:31:06;;;;;;;13.57;10.20;;;24.70;65.70;;;;;;6219555;28;88896;-62
2023/12/05 05:34:08;;;;;;;12.30;9.30;;;24.70;65.60;;;;;;6231821;28;87977;-64
2023/12/05 05:37:10;;;;;;;10.00;9.00;;;24.70;65.50;;;;;;6228138;28;89022;-61
2023/12/05 05:40:13;;;;;;;9.70;8.70;;;24.70;65.50;;;;;;6219134;28;88902;-61
2023/12/05 05:43:15;;;;;;;10.18;8.80;;;24.70;65.50;;;;;;6225804;28;89057;-62
2023/12/05 05:46:18;;;;;;;9.55;8.55;;;24.70;65.40;;;;;;6227277;28;89469;-61
2023/12/05 05:49:20;;;;;;;9.80;8.80;;;24.70;65.40;;;;;;6223349;28;87297;-61
2023/12/05 05:52:22;;;;;;;10.98;8.90;;;24.70;65.40;;;;;;6226113;28;88371;-61
2023/12/05 05:55:26;;;;;;;9.77;8.75;;;24.70;65.30;;;;;;6227968;28;87968;-61
2023/12/05 05:58:28;;;;;;;9.45;8.45;;;24.70;65.20;;;;;;6225752;28;89030;-61
2023/12/05 06:01:31;;;;;;;8.85;7.95;;;24.70;65.20;;;;;;6221354;28;90012;-61
2023/12/05 06:04:33;;;;;;;12.18;9.38;;;24.70;65.10;;;;;;6227820;28;89064;-62
2023/12/05 06:07:36;;;;;;;12.48;9.35;;;24.70;65.20;;;;;;6226243;28;89116;-64
2023/12/05 06:10:40;;;;;;;9.40;8.48;;;24.70;65.10;;;;;;6229220;28;88995;-64
2023/12/05 06:13:42;;;;;;;9.07;8.18;;;24.70;65.00;;;;;;6224903;28;89099;-64
2023/12/05 06:16:45;;;;;;;8.88;8.05;;;24.70;65.00;;;;;;6227768;28;89164;-64
2023/12/05 06:19:47;;;;;;;9.35;7.97;;;24.70;65.00;;;;;;6228691;28;89027;-63
2023/12/05 06:22:49;;;;;;;11.52;9.23;;;24.70;65.00;;;;;;6226656;28;90103;-64
2023/12/05 06:25:51;;;;;;;10.20;8.18;;;24.70;64.40;;;;;;6220876;28;89302;-63
2023/12/05 06:28:53;;;;;;;8.95;8.02;;;24.70;64.10;;;;;;6234772;28;89051;-63
2023/12/05 06:32:02;;;;;;;8.68;7.78;;;24.70;64.20;;;;;;6225480;28;90020;-62
2023/12/05 06:35:05;;;;;;;7.95;7.15;;;24.70;64.40;;;;;;6227784;28;89055;-62
2023/12/05 06:38:07;;;;;;;8.35;7.55;;;24.70;64.50;;;;;;6230475;28;89052;-62
2023/12/05 06:41:09;;;;;;;8.30;7.50;;;24.70;64.60;;;;;;6228506;28;89230;-63
2023/12/05 06:44:12;;;;;;;9.05;7.55;;;24.80;64.70;;;;;;6224316;28;87967;-62
2023/12/05 06:47:15;;;;;;;8.80;7.80;;;24.80;64.40;;;;;;6223537;28;89186;-62
2023/12/05 06:50:17;;;;;;;9.13;7.53;;;24.80;64.20;;;;;;6222546;28;89121;-63
2023/12/05 06:53:19;;;;;;;9.98;8.23;;;24.80;64.20;;;;;;6219298;28;88382;-63
2023/12/05 06:56:21;;;;;;;10.60;8.02;;;24.80;64.10;;;;;;6231703;28;88519;-63
2023/12/05 06:59:23;;;;;;;7.90;7.10;;;24.80;64.10;;;;;;6227244;28;87867;-62
2023/12/05 07:02:26;;;;;;;7.82;7.07;;;24.80;64.00;;;;;;6212827;28;90064;-62
2023/12/05 07:05:28;;;;;;;8.20;7.00;;;24.80;63.80;;;;;;6218261;28;90693;-63
2023/12/05 07:08:30;;;;;;;8.18;7.13;;;24.80;63.80;;;;;;6234519;28;89130;-62
2023/12/05 07:11:32;;;;;;;7.65;6.85;;;24.80;63.70;;;;;;6226922;28;88997;-62
2023/12/05 07:14:35;;;;;;;7.70;7.00;;;24.80;63.80;;;;;;6223785;28;89186;-62
2023/12/05 07:17:39;;;;;;;9.10;7.82;;;24.80;63.80;;;;;;6226248;28;87969;-62
2023/12/05 07:20:41;;;;;;;10.52;7.40;;;24.70;63.80;;;;;;6220442;28;89147;-62
2023/12/05 07:23:43;;;;;;;7.95;7.15;;;24.70;63.80;;;;;;6228280;28;88391;-63
2023/12/05 07:26:46;;;;;;;8.18;7.30;;;24.70;64.00;;;;;;6228141;28;88955;-62
2023/12/05 07:29:48;;;;;;;7.55;6.75;;;24.70;64.00;;;;;;6226090;28;89184;-62
2023/12/05 07:32:52;;;;;;;7.85;7.13;;;24.60;64.00;;;;;;6230730;28;90039;-62
2023/12/05 07:35:54;;;;;;;8.55;7.28;;;24.60;64.40;;;;;;6248732;28;89119;-63
2023/12/05 07:38:56;;;;;;;9.30;7.40;;;24.50;64.70;;;;;;6219388;28;88114;-62
2023/12/05 07:41:58;;;;;;;7.85;6.90;;;24.60;65.20;;;;;;6236978;28;89022;-62
2023/12/05 07:45:01;;;;;;;7.93;7.10;;;24.50;65.30;;;;;;6220040;28;89044;-63
2023/12/05 07:48:05;;;;;;;7.70;6.55;;;24.50;65.50;;;;;;6222153;28;89308;-62
2023/12/05 07:51:08;;;;;;;8.77;7.13;;;24.50;65.50;;;;;;6213328;28;89431;-62
2023/12/05 07:54:10;;;;;;;7.43;6.68;;;24.60;65.70;;;;;;6220633;28;88818;-63
2023/12/05 07:57:11;;;;;;;7.70;6.90;;;24.50;65.70;;;;;;6216488;28;89050;-62
2023/12/05 08:00:16;;;;;;;7.75;6.85;;;24.60;65.80;;;;;;6213347;28;89151;-62
2023/12/05 08:03:19;;;;;;;7.82;7.03;;;24.60;65.90;;;;;;6232019;28;90094;-63
2023/12/05 08:06:21;;;;;;;8.27;6.70;;;24.50;66.00;;;;;;6211650;28;89662;-62
2023/12/05 08:09:23;;;;;;;7.93;7.05;;;24.50;66.10;;;;;;6222997;28;89105;-62
2023/12/05 08:12:25;;;;;;;7.57;6.70;;;24.60;66.20;;;;;;6213899;28;89435;-62
2023/12/05 08:15:27;;;;;;;7.65;6.90;;;24.60;66.30;;;;;;6220433;28;88045;-62
2023/12/05 08:18:30;;;;;;;9.43;7.38;;;24.60;66.30;;;;;;6218078;28;89078;-62
2023/12/05 08:21:34;;;;;;;7.43;6.63;;;24.60;66.40;;;;;;6212896;28;89045;-63
2023/12/05 08:24:36;;;;;;;9.43;7.05;;;24.60;66.40;;;;;;6228514;28;88381;-62
2023/12/05 08:27:38;;;;;;;9.90;7.57;;;24.50;66.40;;;;;;6217690;28;89309;-63
2023/12/05 08:30:41;;;;;;;7.05;6.45;;;24.60;66.50;;;;;;6231798;28;88375;-62
2023/12/05 08:33:44;;;;;;;7.22;6.53;;;24.60;66.50;;;;;;6228923;28;90097;-62
2023/12/05 08:36:46;;;;;;;7.63;6.82;;;24.60;66.50;;;;;;6216720;28;89165;-62
2023/12/05 08:39:48;;;;;;;7.53;6.72;;;24.60;66.50;;;;;;6218251;28;89076;-63
2023/12/05 08:42:50;;;;;;;7.30;6.60;;;24.60;66.50;;;;;;6221096;28;89117;-62
2023/12/05 08:45:52;;;;;;;7.78;6.97;;;24.60;66.50;;;;;;6227942;28;89425;-63
2023/12/05 08:48:55;;;;;;;7.90;6.72;;;24.60;66.50;;;;;;6242311;28;89084;-62
2023/12/05 08:51:57;;;;;;;9.27;7.30;;;24.60;66.50;;;;;;6211769;28;89219;-62
2023/12/05 08:55:00;;;;;;;7.25;6.55;;;24.60;66.50;;;;;;6207371;28;88332;-62
2023/12/05 08:58:02;;;;;;;7.10;6.40;;;24.60;66.50;;;;;;6218057;28;89449;-62
2023/12/05 09:01:04;;;;;;;7.47;6.78;;;24.60;66.40;;;;;;6221570;28;88026;-62
2023/12/05 09:04:09;;;;;;;7.80;7.00;;;24.60;66.40;;;;;;6215814;28;90052;-62
2023/12/05 09:07:11;;;;;;;7.82;6.95;;;24.60;66.40;;;;;;6216063;28;89085;-62
2023/12/05 09:10:13;;;;;;;7.25;6.55;;;24.70;66.40;;;;;;6210704;28;89097;-62
2023/12/05 09:13:16;;;;;;;7.47;6.55;;;24.60;66.30;;;;;;6223325;28;89515;-63
2023/12/05 09:16:18;;;;;;;8.18;6.45;;;24.70;66.40;;;;;;6237560;28;89139;-63
2023/12/05 09:19:21;;;;;;;9.35;6.93;;;24.70;66.40;;;;;;6226653;28;89030;-62
2023/12/05 09:22:23;;;;;;;7.25;6.28;;;24.70;66.30;;;;;;6226706;28;88971;-63
2023/12/05 09:25:25;;;;;;;7.07;6.38;;;24.70;66.20;;;;;;6216831;28;88185;-62
2023/12/05 09:28:28;;;;;;;7.43;6.53;;;24.70;66.20;;;;;;6221696;28;88966;-63
2023/12/05 09:31:30;;;;;;;8.55;7.00;;;24.60;66.10;;;;;;6223151;28;89213;-62
2023/12/05 09:34:34;;;;;;;7.22;6.53;;;24.70;66.10;;;;;;6224517;28;90386;-63
2023/12/05 09:37:36;;;;;;;6.82;6.22;;;24.70;66.10;;;;;;6223447;28;89025;-62
2023/12/05 09:40:41;;;;;;;8.02;6.72;;;24.70;66.00;;;;;;6207363;28;89169;-62
2023/12/05 09:43:44;;;;;;;7.50;6.65;;;24.70;65.90;;;;;;6216746;28;89494;-62
2023/12/05 09:46:51;;;;;;;7.32;6.53;;;24.70;65.90;;;;;;6206709;28;89075;-62
2023/12/05 09:49:56;;;;;;;7.30;6.53;;;24.70;65.80;;;;;;6231875;28;89033;-62
2023/12/05 09:53:00;;;;;;;7.30;6.60;;;24.70;65.80;;;;;;6228973;28;89110;-63
2023/12/05 09:56:03;;;;;;;6.88;6.22;;;24.70;65.70;;;;;;6229726;28;87278;-63
2023/12/05 09:59:04;;;;;;;7.28;6.45;;;24.70;65.70;;;;;;6215916;28;89158;-62
2023/12/05 10:02:07;;;;;;;7.35;6.60;;;24.70;65.60;;;;;;6215248;28;89074;-62
2023/12/05 10:05:15;;;;;;;7.72;6.28;;;24.70;65.50;;;;;;6228035;28;90011;-62
2023/12/05 10:08:17;;;;;;;8.80;7.13;;;24.70;65.40;;;;;;6229371;28;89149;-63
2023/12/05 10:11:21;;;;;;;7.60;6.80;;;24.70;65.40;;;;;;6220391;28;89188;-63
2023/12/05 10:14:24;;;;;;;7.80;6.65;;;24.70;65.40;;;;;;6214863;28;89186;-63
2023/12/05 10:17:26;;;;;;;5.72;5.15;;;24.80;65.30;;;;;;6235409;28;89018;-62
2023/12/05 10:20:29;;;;;;;6.20;5.25;;;24.70;64.90;;;;;;6225456;28;89083;-63
2023/12/05 10:23:32;;;;;;;5.82;5.22;;;24.70;64.40;;;;;;6218280;28;89043;-63
2023/12/05 10:26:45;;;;;;;6.18;5.57;;;24.80;64.50;;;;;;6212999;28;88299;-63
2023/12/05 10:29:47;;;;;;;6.35;5.75;;;24.70;64.50;;;;;;6223787;28;87962;-62
2023/12/05 10:32:49;;;;;;;6.30;5.70;;;24.80;64.50;;;;;;6222640;28;89038;-62
2023/12/05 10:35:55;;;;;;;8.00;6.00;;;24.70;64.50;;;;;;6209061;28;90081;-63
2023/12/05 10:38:57;;;;;;;7.03;5.95;;;24.70;64.50;;;;;;6218116;28;89314;-62
2023/12/05 10:41:59;;;;;;;6.60;5.82;;;24.70;64.50;;;;;;6221735;28;89276;-62
2023/12/05 10:45:06;;;;;;;6.03;5.43;;;24.70;64.50;;;;;;6221007;28;89020;-63
2023/12/05 10:48:08;;;;;;;6.70;6.00;;;24.70;64.50;;;;;;6216379;28;89113;-63
2023/12/05 10:51:15;;;;;;;6.88;6.18;;;24.70;63.70;;;;;;6219795;28;89259;-62
2023/12/05 10:54:18;;;;;;;6.63;5.93;;;24.70;64.20;;;;;;6221077;28;89077;-63
2023/12/05 10:57:30;;;;;;;6.40;5.80;;;24.70;64.30;;;;;;6222337;28;88488;-63
2023/12/05 11:00:32;;;;;;;6.90;5.82;;;24.70;64.40;;;;;;6223523;28;88065;-62
2023/12/05 11:03:34;;;;;;;7.22;5.88;;;24.70;64.40;;;;;;6218005;28;89121;-63
2023/12/05 11:06:37;;;;;;;8.55;6.35;;;24.70;64.40;;;;;;6220953;28;90027;-62
2023/12/05 11:09:43;;;;;;;8.65;6.10;;;24.70;64.50;;;;;;6216584;28;89069;-63
2023/12/05 11:12:49;;;;;;;8.73;6.32;;;24.70;64.60;;;;;;6221338;28;89054;-61
2023/12/05 11:15:53;;;;;;;7.60;6.22;;;24.70;65.20;;;;;;6219583;28;89414;-61
2023/12/05 11:19:09;;;;;;;7.32;5.63;;;24.70;65.20;;;;;;6209905;28;88189;-60
2023/12/05 11:22:22;;;;;;;6.15;5.55;;;24.70;65.10;;;;;;6220299;28;87974;-60
2023/12/05 11:25:44;;;;;;;6.20;5.57;;;24.70;65.40;;;;;;6221739;28;89021;-60
2023/12/05 11:29:04;;;;;;;7.80;6.15;;;24.70;65.30;;;;;;6219405;28;88285;-60
2023/12/05 11:32:18;;;;;;;6.45;5.78;;;24.70;65.40;;;;;;6212514;28;89046;-60
2023/12/05 11:35:28;;;;;;;7.15;6.07;;;24.70;65.50;;;;;;6213846;28;89654;-60
2023/12/05 11:38:32;;;;;;;7.00;5.82;;;24.70;65.60;;;;;;6228771;28;90188;-60
2023/12/05 11:41:34;;;;;;;11.20;6.22;;;24.70;65.50;;;;;;6215025;28;89202;-60
2023/12/05 11:44:37;;;;;;;7.22;5.78;;;24.70;65.40;;;;;;6217133;28;89126;-60
2023/12/05 11:47:39;;;;;;;8.02;6.13;;;24.70;65.30;;;;;;6224532;28;88876;-60
2023/12/05 11:50:46;;;;;;;6.75;6.05;;;24.70;65.30;;;;;;6213828;28;88141;-60
2023/12/05 11:53:52;;;;;;;7.65;5.70;;;24.70;65.30;;;;;;6211164;28;87981;-60
2023/12/05 11:57:11;;;;;;;9.75;6.78;;;24.70;65.30;;;;;;6218309;28;88053;-60
2023/12/05 12:00:13;;;;;;;7.50;6.30;;;24.70;65.20;;;;;;6206451;28;88411;-60
2023/12/05 12:03:16;;;;;;;6.40;5.57;;;24.70;65.20;;;;;;6219777;28;87987;-60
2023/12/05 12:06:19;;;;;;;6.93;5.93;;;24.80;65.20;;;;;;6207621;28;90423;-59
2023/12/05 12:09:22;;;;;;;6.55;5.85;;;24.70;65.20;;;;;;6210450;28;89996;-60
2023/12/05 12:12:26;;;;;;;7.38;6.20;;;24.70;65.20;;;;;;6222057;28;89070;-59
2023/12/05 12:15:37;;;;;;;6.45;5.82;;;24.80;65.40;;;;;;6220441;28;89076;-60
2023/12/05 12:18:39;;;;;;;7.68;6.00;;;24.70;65.50;;;;;;6206149;28;89177;-60
2023/12/05 12:21:42;;;;;;;9.23;6.03;;;24.70;65.90;;;;;;6210579;28;89233;-60
2023/12/05 12:24:45;;;;;;;8.38;6.30;;;24.70;66.30;;;;;;6214668;28;87954;-59
2023/12/05 12:27:48;;;;;;;12.10;6.68;;;24.70;66.60;;;;;;6206008;28;89724;-60
2023/12/05 12:30:50;;;;;;;9.75;6.90;;;24.70;66.70;;;;;;6211938;28;88695;-59
2023/12/05 12:33:53;;;;;;;7.88;6.07;;;24.70;67.00;;;;;;6207018;28;89488;-60
2023/12/05 12:36:57;;;;;;;11.20;6.18;;;24.70;67.10;;;;;;6223904;28;89138;-60
2023/12/05 12:40:01;;;;;;;10.07;7.07;;;24.70;67.20;;;;;;6210856;28;90325;-59
2023/12/05 12:43:03;;;;;;;8.50;6.30;;;24.70;67.30;;;;;;6213090;28;89272;-59
2023/12/05 12:46:05;;;;;;;8.90;6.38;;;24.70;67.30;;;;;;6204453;28;89006;-59
2023/12/05 12:49:07;;;;;;;7.68;5.97;;;24.70;67.40;;;;;;6207666;28;87985;-60
2023/12/05 12:52:09;;;;;;;12.77;6.90;;;24.70;67.50;;;;;;6201711;28;89421;-59
2023/12/05 12:55:13;;;;;;;14.52;7.03;;;24.70;68.70;;;;;;6216466;28;89283;-59
2023/12/05 12:58:15;;;;;;;9.63;6.97;;;24.80;68.60;;;;;;6211244;28;88950;-59
2023/12/05 13:01:20;;;;;;;10.43;6.70;;;24.80;68.30;;;;;;6215506;28;88421;-59
2023/12/05 13:04:22;;;;;;;9.93;6.35;;;24.80;68.10;;;;;;6203744;28;89178;-59
2023/12/05 13:07:25;;;;;;;9.13;6.00;;;24.70;68.00;;;;;;6214790;28;89226;-59
2023/12/05 13:10:29;;;;;;;9.15;5.80;;;24.80;68.20;;;;;;6206486;28;89993;-59
2023/12/05 13:13:31;;;;;;;10.05;7.07;;;24.80;67.90;;;;;;6227706;28;89094;-59
2023/12/05 13:16:33;;;;;;;8.88;6.68;;;24.80;67.90;;;;;;6205361;28;88171;-59
2023/12/05 13:19:35;;;;;;;8.52;6.20;;;24.80;67.90;;;;;;6206208;28;89449;-59
2023/12/05 13:22:37;;;;;;;7.63;6.15;;;24.80;67.90;;;;;;6216992;28;89248;-59
2023/12/05 13:25:41;;;;;;;8.15;6.38;;;24.80;67.80;;;;;;6223899;28;89320;-59
2023/12/05 13:28:43;;;;;;;9.93;6.70;;;24.80;67.70;;;;;;6204901;28;89008;-59
2023/12/05 13:31:46;;;;;;;9.25;6.35;;;24.80;67.70;;;;;;6218111;28;88326;-59
2023/12/05 13:34:48;;;;;;;8.63;6.25;;;24.80;67.80;;;;;;6211115;28;87968;-59
2023/12/05 13:37:50;;;;;;;10.60;7.10;;;24.80;67.70;;;;;;6213761;28;88679;-59
2023/12/05 13:40:53;;;;;;;8.80;6.38;;;24.80;67.70;;;;;;6212184;28;90491;-59
2023/12/05 13:43:55;;;;;;;8.05;6.13;;;24.80;67.60;;;;;;6212436;28;88663;-59
2023/12/05 13:46:57;;;;;;;9.02;6.55;;;24.80;67.60;;;;;;6229861;28;89157;-59
2023/12/05 13:50:05;;;;;;;8.55;6.43;;;24.80;67.40;;;;;;6211902;28;88998;-59
2023/12/05 13:53:08;;;;;;;9.93;6.95;;;24.80;68.30;;;;;;6211169;28;88654;-59
2023/12/05 13:56:12;;;;;;;8.15;6.35;;;24.80;67.30;;;;;;6221190;28;89173;-59
2023/12/05 13:59:14;;;;;;;10.57;6.95;;;24.80;67.20;;;;;;6224504;28;89426;-59
2023/12/05 14:02:16;;;;;;;6.70;5.93;;;24.80;67.10;;;;;;6221049;28;87222;-59
2023/12/05 14:05:18;;;;;;;8.73;6.63;;;24.80;67.10;;;;;;6228783;28;89157;-59
2023/12/05 14:08:20;;;;;;;7.68;6.47;;;24.80;67.10;;;;;;6227288;28;89534;-59
2023/12/05 14:11:25;;;;;;;7.47;6.03;;;24.80;67.10;;;;;;6229477;28;90199;-59
2023/12/05 14:14:26;;;;;;;9.32;6.40;;;24.80;67.10;;;;;;6221057;28;89037;-59
2023/12/05 14:17:28;;;;;;;7.43;6.10;;;24.80;67.10;;;;;;6220419;28;89072;-59
2023/12/05 14:20:30;;;;;;;9.35;7.10;;;24.70;67.20;;;;;;6221921;28;87881;-59
2023/12/05 14:23:32;;;;;;;6.68;6.07;;;24.80;67.40;;;;;;6229689;28;89060;-59
2023/12/05 14:26:36;;;;;;;7.28;6.10;;;24.80;67.30;;;;;;6218898;28;89226;-59
2023/12/05 14:29:37;;;;;;;6.72;5.75;;;24.80;67.30;;;;;;6208545;28;89013;-59
2023/12/05 14:32:39;;;;;;;8.38;6.43;;;24.80;67.30;;;;;;6225514;28;88472;-60
2023/12/05 14:35:41;;;;;;;10.20;6.97;;;24.80;67.10;;;;;;6228826;28;89004;-60
2023/12/05 14:38:43;;;;;;;6.90;6.20;;;24.80;67.30;;;;;;6237587;28;89122;-59
2023/12/05 14:41:48;;;;;;;7.10;6.40;;;24.80;67.30;;;;;;6217459;28;91836;-59
2023/12/05 14:44:50;;;;;;;6.95;5.93;;;24.80;67.40;;;;;;6224777;28;89536;-59
2023/12/05 14:47:52;;;;;;;7.65;6.10;;;24.80;67.40;;;;;;6225731;28;89061;-59
2023/12/05 14:50:54;;;;;;;7.18;5.93;;;24.80;67.30;;;;;;6214185;28;87956;-59
2023/12/05 14:53:56;;;;;;;6.40;5.78;;;24.80;67.40;;;;;;6214553;28;89028;-59
2023/12/05 14:57:00;;;;;;;7.22;6.00;;;24.80;67.30;;;;;;6220132;28;87933;-60
2023/12/05 15:00:03;;;;;;;8.05;6.30;;;24.80;67.30;;;;;;6211163;28;87916;-59
2023/12/05 15:03:05;;;;;;;7.10;6.00;;;24.80;67.30;;;;;;6217121;28;88458;-60
2023/12/05 15:06:07;;;;;;;6.88;6.18;;;24.80;67.20;;;;;;6211588;28;89153;-59
2023/12/05 15:09:09;;;;;;;6.85;6.20;;;24.70;67.20;;;;;;6218984;28;88092;-60
2023/12/05 15:12:15;;;;;;;8.48;6.38;;;24.80;67.20;;;;;;6232373;28;90318;-60
2023/12/05 15:15:17;;;;;;;6.40;5.80;;;24.70;67.20;;;;;;6231241;28;89494;-60
2023/12/05 15:18:20;;;;;;;6.22;5.63;;;24.70;67.20;;;;;;6223338;28;88082;-60
2023/12/05 15:21:22;;;;;;;6.03;5.43;;;24.70;67.10;;;;;;6227487;28;89158;-59
2023/12/05 15:24:24;;;;;;;8.32;6.05;;;24.70;67.10;;;;;;6223125;28;89024;-60
2023/12/05 15:27:27;;;;;;;8.10;6.07;;;24.70;67.10;;;;;;6232548;28;88038;-60
2023/12/05 15:30:29;;;;;;;6.72;6.07;;;24.70;67.10;;;;;;6206897;28;89091;-59
2023/12/05 15:33:31;;;;;;;6.97;6.28;;;24.70;67.20;;;;;;6218858;28;88278;-59
2023/12/05 15:36:33;;;;;;;6.63;5.93;;;24.70;67.20;;;;;;6211001;28;87929;-60
2023/12/05 15:39:38;;;;;;;7.43;6.00;;;24.60;67.20;;;;;;6220539;28;89082;-60
2023/12/05 15:42:44;;;;;;;6.75;5.97;;;24.60;67.30;;;;;;6215763;28;90040;-60
2023/12/05 15:45:46;;;;;;;7.25;6.18;;;24.50;67.30;;;;;;6212077;28;89122;-59